Lost Hills, California
Current Conditions -  °F | °C
As of 6:54 PM on Sunday 21 Dec 2014 (Local Time) from KBFL Reporting Station
Overcast Overcast  
Wind Chill: 57°   Ceiling: 3400
Heat Index: 57°   Visibility: 10mi
Dew Point: 52°   Wind: 0mph
Humidity: 83%   Direction: NA
Pressure: 30.25"   Gusts: NA
Location:  35.62°N, 119.7°W
Report Text: KBFL 220254Z AUTO 00000KT 10SM OVC034 14/11 A3025 RMK AO2 SLP243 T01390111 51007 TSNO
Loading
Personal Weather Stations






























Interactive Weather Map New forecast layout! Learn more

10-Day Weather Forecast

Advertisements
Track Severe Weather on mobile